帯広空港の過去48時間の天気

帯広空港 (Obihiro)

現在時刻: 9/17 00:11 JST (9/16 15:11 UTC) 以下の時間は現地時間です。

過去48時間のMETAR気象情報
時間 風向 風速(m/s) 視程 気温(℃) 湿度(%) 気圧(hPa) 天気現象
16 20:00 北北西 2 5000m 18 100 1004 もや
16 19:00 北西 2 8000m 18 100 1005 弱いしゅう雨
16 18:24 西北西 3 8000m 18 100 1005 弱いしゅう雨
16 18:00 北西 2 8000m 18 100 1005
16 17:00 3 8000m 19 94 1006
16 16:00 北北西 3 5000m 19 94 1006 もや
16 15:41 2 4900m 19 94 1006 弱いしゅう雨 もや
16 15:00 3 5000m 18 100 1006 もや
16 14:47 3 5000m 19 94 1007 もや
16 14:00 3 5000m 18 100 1007 弱いしゅう雨 もや
16 13:31 2 5000m 18 100 1007 弱いしゅう雨 もや
16 13:00 北北西 2 3200m 18 94 1008 弱いしゅう雨 もや
16 12:48 北北西 2 2400m 18 100 1008 弱いしゅう雨 もや
16 12:00 不定 1 2300m 18 94 1009 弱いしゅう雨 もや
16 11:43 不定 1 3100m 18 94 1009 弱いしゅう雨 もや
16 11:37 不定 1 4900m 18 94 1009 弱いしゅう雨 もや
16 11:00 北北東 2 5000m 18 94 1009 もや
16 10:22 不定 1 4900m 17 100 1010 弱いしゅう雨 もや
16 10:00 1 5000m 17 100 1010 弱いしゅう雨 もや
16 09:00 不定 1 8000m 18 88 1011
16 08:00 南南西 2 6000m 17 94 1011
16 07:40 2 6000m 17 94 1011
15 20:00 南南東 2 10km以上 19 94 1013
15 19:00 不定 1 10km以上 19 94 1013
15 18:00 不定 1 10km以上 19 94 1012 弱いしゅう雨
15 17:00 東南東 1 10km以上 20 88 1012 弱いしゅう雨
15 16:00 不定 1 10km以上 21 78 1012
15 15:00 不定 1 10km以上 21 78 1011
15 14:00 2 10km以上 21 83 1011
15 13:00 2 10km以上 21 83 1011 弱いしゅう雨
15 12:00 北北東 2 10km以上 21 73 1011
15 11:00 3 10km以上 21 73 1011
15 10:00 2 10km以上 20 78 1012
15 09:00 北北西 4 10km以上 18 94 1012
15 08:00 北西 2 5000m 17 94 1011 もや
15 07:40 2 3500m 17 94 1011 もや
RJCB 161100Z 34003KT 5000 BR FEW004 BKN040 18/18 Q1004
RJCB 161000Z 31004KT 8000 -SHRA FEW004 BKN030 18/18 Q1005
RJCB 160924Z 30005KT 8000 -SHRA FEW004 SCT009 BKN025 18/18 Q1005 RMK 1ST004 4ST009 7CU025 A2968
RJCB 160900Z 31004KT 8000 FEW004 BKN009 BKN015 18/18 Q1005
RJCB 160800Z 35005KT 8000 FEW004 SCT008 BKN015 19/18 Q1006
RJCB 160700Z 34006KT 5000 BR FEW004 BKN008 19/18 Q1006
RJCB 160641Z 35004KT 330V040 4900 -SHRA BR FEW003 BKN008 BKN010 19/18 Q1006 RMK 1ST003 5ST008 7ST010 A2972
RJCB 160600Z 01005KT 5000 BR FEW003 BKN012 18/18 Q1006
RJCB 160547Z 35005KT 5000 BR FEW003 SCT006 BKN012 19/18 Q1007 RMK 1ST003 4ST006 7ST012 A2974
RJCB 160500Z 35005KT 5000 -SHRA BR FEW003 BKN006 BKN010 18/18 Q1007
RJCB 160431Z 36003KT 330V040 5000 -SHRA BR FEW003 BKN006 BKN010 18/18 Q1007 RMK 1ST003 5ST006 7ST010 A2976
RJCB 160400Z 33003KT 3200 -SHRA BR FEW003 BKN006 BKN010 18/17 Q1008
RJCB 160348Z 33004KT 2400 -SHRA BR FEW003 BKN006 BKN010 18/18 Q1008 RMK 2ST003 5ST006 7ST010 A2977
RJCB 160300Z VRB02KT 2300 R35/1900U -SHRA BR FEW003 SCT005 BKN006 18/17 Q1009
RJCB 160243Z VRB02KT 3100 R35/1800D -SHRA BR FEW004 BKN006 BKN010 18/17 Q1009 RMK 1ST004 5ST006 7ST010 A2980
RJCB 160237Z VRB02KT 4900 R35/2000N -SHRA BR FEW004 BKN006 BKN010 18/17 Q1009 RMK 1ST004 5ST006 7ST010 A2980
RJCB 160200Z 02003KT 350V060 5000 BR FEW003 BKN006 BKN015 18/17 Q1009
RJCB 160122Z VRB02KT 4900 -SHRA BR FEW004 BKN006 BKN007 17/17 Q1010 RMK 1ST004 5ST006 7ST007 A2984
RJCB 160100Z 09002KT 5000 -SHRA BR FEW004 BKN006 BKN007 17/17 Q1010
RJCB 160000Z VRB01KT 8000 FEW005 SCT007 BKN009 18/16 Q1011
RJCB 152300Z 21004KT 6000 FEW005 BKN009 BKN010 17/16 Q1011
RJCB 152240Z 19004KT 6000 FEW005 SCT009 BKN010 17/16 Q1011 RMK 1ST005 4ST009 7ST010 A2988
RJCB 151100Z 15003KT 9999 FEW007 BKN018 19/18 Q1013
RJCB 151000Z VRB02KT 9999 FEW007 SCT015 BKN050 19/18 Q1013
RJCB 150900Z VRB02KT 9999 -SHRA FEW007 SCT015 BKN030 19/18 Q1012
RJCB 150800Z 12002KT 9999 -SHRA FEW010 SCT015 BKN050 20/18 Q1012
RJCB 150700Z VRB02KT 9999 FEW010 BKN050 21/17 Q1012
RJCB 150600Z VRB02KT 9999 FEW010 BKN060 21/17 Q1011
RJCB 150500Z 35003KT 310V040 9999 FEW015 SCT070 BKN120 21/18 Q1011
RJCB 150400Z 01004KT 330V050 9999 -SHRA SCT017 BKN120 21/18 Q1011
RJCB 150300Z 03004KT 360V100 9999 SCT020 BKN150 21/16 Q1011
RJCB 150200Z 01005KT 320V070 9999 FEW020 BKN150 21/16 Q1011
RJCB 150100Z 36004KT 320V050 9999 FEW030 BKN150 20/16 Q1012
RJCB 150000Z 33007KT 9999 FEW005 SCT080 BKN120 18/17 Q1012
RJCB 142300Z 31003KT 250V350 5000 BR FEW002 SCT003 BKN120 17/16 Q1011
RJCB 142240Z 35003KT 3500 BR FEW002 BKN003 BKN120 17/16 Q1011 RMK 1ST002 5ST003 7AC120 A2986